Time;durP1;ratioP1;P1;durP2;ratioP2;P2;SDS_P1;SDS_P2;PMS_P1;PMS_P2;Temp;Humidity;BMP_temperature;BMP_pressure;BME280_temperature;BME280_humidity;BME280_pressure;Samples;Min_cycle;Max_cycle;Signal;HPM_P1;HPM_P2
2022/06/22 00:04:56;;;;;;;6.50;2.63;;;16.20;65.90;;;;;;4945883;28;20050;-80
2022/06/22 00:07:31;;;;;;;10.43;2.17;;;16.20;62.00;;;;;;4929917;29;20031;-80
2022/06/22 00:10:12;;;;;;;5.75;2.53;;;16.10;62.90;;;;;;4929170;29;20499;-80
2022/06/22 00:12:38;;;;;;;3.40;1.77;;;16.10;61.90;;;;;;4930115;29;20039;-80
2022/06/22 00:15:19;;;;;;;3.78;2.22;;;16.30;59.30;;;;;;4947783;28;20054;-79
2022/06/22 00:20:30;;;;;;;3.45;1.92;;;16.40;59.30;;;;;;4931410;29;20165;-80
2022/06/22 00:22:57;;;;;;;3.22;1.30;;;16.30;58.80;;;;;;4937311;29;20062;-80
2022/06/22 00:25:32;;;;;;;3.60;1.73;;;16.20;58.90;;;;;;4922212;29;20368;-80
2022/06/22 00:28:31;;;;;;;6.50;2.83;;;16.20;59.10;;;;;;4951001;28;20094;-80
2022/06/22 00:31:11;;;;;;;6.47;2.92;;;16.10;58.90;;;;;;4911299;29;20031;-80
2022/06/22 00:33:37;;;;;;;4.53;3.20;;;16.00;59.20;;;;;;4949596;29;20035;-80
2022/06/22 00:36:18;;;;;;;6.15;2.92;;;15.90;59.50;;;;;;4937462;29;20132;-80
2022/06/22 00:38:43;;;;;;;6.57;2.58;;;15.60;62.40;;;;;;4931969;29;20576;-80
2022/06/22 00:41:21;;;;;;;5.13;2.63;;;15.40;61.20;;;;;;4934218;29;20043;-80
2022/06/22 00:43:47;;;;;;;6.90;2.80;;;15.40;63.50;;;;;;4919965;29;20028;-80
2022/06/22 00:46:20;;;;;;;5.72;2.80;;;15.30;64.40;;;;;;4934021;29;20053;-80
2022/06/22 00:48:53;;;;;;;4.50;2.83;;;15.20;68.60;;;;;;4926683;29;20035;-80
2022/06/22 00:51:29;;;;;;;3.85;2.58;;;15.10;73.10;;;;;;4917364;29;20042;-80
2022/06/22 00:53:58;;;;;;;3.63;1.90;;;15.20;68.40;;;;;;4918414;29;20511;-80
2022/06/22 00:56:41;;;;;;;6.75;2.67;;;15.40;62.60;;;;;;4922579;29;20027;-81
2022/06/22 00:59:25;;;;;;;5.97;3.00;;;15.40;61.40;;;;;;4949007;28;20130;-80
2022/06/22 01:01:58;;;;;;;7.15;3.28;;;15.30;63.60;;;;;;4931701;28;20024;-80
2022/06/22 01:04:50;;;;;;;4.72;2.92;;;15.00;65.30;;;;;;4915723;29;20578;-80
2022/06/22 01:07:31;;;;;;;3.70;2.40;;;15.10;62.50;;;;;;4935225;29;20098;-80
2022/06/22 01:10:02;;;;;;;8.07;2.60;;;15.10;61.30;;;;;;4933927;29;20063;-80
2022/06/22 01:12:32;;;;;;;5.18;2.40;;;15.10;61.30;;;;;;4934394;29;20116;-80
2022/06/22 01:15:27;;;;;;;5.88;3.50;;;15.00;63.60;;;;;;4933605;28;20043;-80
2022/06/22 01:18:08;;;;;;;6.18;2.55;;;14.70;68.30;;;;;;4934537;29;20035;-80
2022/06/22 01:21:02;;;;;;;8.05;2.67;;;14.70;64.50;;;;;;4948553;29;20028;-80
2022/06/22 01:23:35;;;;;;;4.40;2.92;;;14.50;71.80;;;;;;4914328;29;20057;-81
2022/06/22 01:26:39;;;;;;;2.97;2.10;;;14.60;66.90;;;;;;4934231;29;20047;-80
2022/06/22 01:29:15;;;;;;;6.55;2.17;;;14.80;62.60;;;;;;4948638;29;20039;-80
2022/06/22 01:31:57;;;;;;;3.22;1.90;;;14.90;62.40;;;;;;4931690;29;20035;-80
2022/06/22 01:34:24;;;;;;;3.20;1.83;;;14.90;62.70;;;;;;4918849;29;20035;-80
2022/06/22 01:36:49;;;;;;;3.65;1.90;;;15.00;63.00;;;;;;4923084;29;20059;-80
2022/06/22 01:39:15;;;;;;;6.32;2.50;;;15.00;62.80;;;;;;4921957;29;20066;-80
2022/06/22 01:41:52;;;;;;;4.57;2.60;;;15.00;63.70;;;;;;4916386;29;20098;-80
2022/06/22 01:44:27;;;;;;;5.60;3.08;;;14.80;63.00;;;;;;4918533;29;20399;-80
2022/06/22 01:47:17;;;;;;;7.95;2.95;;;14.30;65.60;;;;;;4916563;29;20446;-79
2022/06/22 01:50:19;;;;;;;8.10;3.60;;;14.00;74.00;;;;;;4948067;28;20035;-80
2022/06/22 01:52:55;;;;;;;8.07;3.00;;;14.10;70.10;;;;;;4951191;28;20140;-80
2022/06/22 01:55:24;;;;;;;5.05;2.90;;;14.30;67.30;;;;;;4930329;29;20035;-80
2022/06/22 01:58:01;;;;;;;4.97;3.35;;;14.10;70.90;;;;;;4915713;29;20043;-80
2022/06/22 02:00:45;;;;;;;6.25;2.72;;;13.80;76.00;;;;;;4931280;29;20527;-80
2022/06/22 02:03:17;;;;;;;4.20;2.67;;;13.70;78.50;;;;;;4936815;29;20051;-81
2022/06/22 02:07:44;;;;;;;6.93;2.97;;;13.90;69.80;;;;;;4903014;29;20058;-80
2022/06/22 02:08:51;;;;;;;4.85;3.00;;;14.10;67.30;;;;;;4934270;29;20042;-80
2022/06/22 02:11:20;;;;;;;9.13;2.95;;;14.20;66.50;;;;;;4910611;29;20118;-79
2022/06/22 02:13:57;;;;;;;6.18;3.13;;;13.80;73.50;;;;;;4929287;29;20562;-79
2022/06/22 02:16:37;;;;;;;6.38;3.08;;;13.50;82.50;;;;;;4913031;29;20110;-80
2022/06/22 02:19:03;;;;;;;3.80;3.40;;;13.40;85.80;;;;;;4948478;29;20050;-80
2022/06/22 02:21:41;;;;;;;11.88;3.40;;;13.30;92.30;;;;;;4948101;29;20031;-80
2022/06/22 02:24:28;;;;;;;6.60;3.00;;;13.20;90.20;;;;;;4934439;29;20036;-80
2022/06/22 02:26:58;;;;;;;4.72;3.00;;;13.20;94.40;;;;;;4917112;28;20070;-80
2022/06/22 02:29:25;;;;;;;5.68;3.40;;;13.10;93.90;;;;;;4916416;29;20037;-79
2022/06/22 02:31:51;;;;;;;6.75;3.03;;;13.30;94.20;;;;;;4908592;29;20035;-80
2022/06/22 02:34:17;;;;;;;8.07;3.08;;;13.30;93.40;;;;;;4899802;29;20058;-80
2022/06/22 02:36:44;;;;;;;8.10;4.18;;;13.30;92.80;;;;;;4930271;29;20059;-80
2022/06/22 02:39:11;;;;;;;7.85;3.20;;;13.10;95.50;;;;;;4931446;29;20054;-80
2022/06/22 02:44:29;;;;;;;3.05;2.22;;;13.40;88.20;;;;;;4937670;29;20086;-80
2022/06/22 02:46:55;;;;;;;4.18;2.70;;;13.60;84.30;;;;;;4930503;29;20043;-80
2022/06/22 02:49:31;;;;;;;3.65;2.55;;;13.70;82.80;;;;;;4915500;29;20042;-80
2022/06/22 02:51:57;;;;;;;9.52;3.30;;;13.60;82.50;;;;;;4915010;29;20039;-80
2022/06/22 02:54:28;;;;;;;7.82;3.40;;;13.40;91.40;;;;;;4927269;29;20087;-80
2022/06/22 02:57:04;;;;;;;7.05;3.45;;;13.20;93.50;;;;;;4916268;28;20038;-80
2022/06/22 02:59:30;;;;;;;7.18;3.70;;;13.20;89.10;;;;;;4915921;29;20525;-80
2022/06/22 03:01:55;;;;;;;5.88;3.47;;;13.30;85.90;;;;;;4931814;29;20229;-80
2022/06/22 03:04:21;;;;;;;8.40;3.30;;;13.20;92.10;;;;;;4901891;29;20078;-80
2022/06/22 03:06:49;;;;;;;9.73;3.85;;;13.00;92.60;;;;;;4920863;29;20543;-80
2022/06/22 03:09:14;;;;;;;3.65;3.03;;;12.60;95.20;;;;;;4918010;29;20046;-80
2022/06/22 03:11:42;;;;;;;4.88;3.33;;;12.60;98.90;;;;;;4914833;29;20039;-80
2022/06/22 03:14:32;;;;;;;6.38;3.47;;;12.60;99.80;;;;;;4929408;29;20043;-80
2022/06/22 03:17:06;;;;;;;7.85;3.42;;;12.60;99.20;;;;;;4944139;29;20046;-80
2022/06/22 03:19:43;;;;;;;5.95;3.13;;;12.80;93.10;;;;;;4930905;29;20039;-80
2022/06/22 03:22:16;;;;;;;5.63;2.35;;;13.10;91.10;;;;;;4928685;29;20059;-80
2022/06/22 03:24:56;;;;;;;3.60;2.10;;;13.20;90.20;;;;;;4914297;29;20153;-80
2022/06/22 03:27:24;;;;;;;4.80;2.72;;;13.30;90.20;;;;;;4947818;29;20458;-80
2022/06/22 03:30:02;;;;;;;2.45;2.25;;;13.50;90.80;;;;;;4927935;29;20035;-80
2022/06/22 03:32:36;;;;;;;2.15;1.95;;;13.40;90.60;;;;;;4928913;29;20027;-80
2022/06/22 03:35:44;;;;;;;7.57;3.78;;;13.30;90.40;;;;;;4931558;29;20039;-80
2022/06/22 03:38:17;;;;;;;5.25;3.38;;;12.80;89.10;;;;;;4923796;29;20499;-80
2022/06/22 03:40:51;;;;;;;11.82;4.20;;;12.50;99.90;;;;;;4913850;28;20476;-80
2022/06/22 03:43:27;;;;;;;6.07;3.58;;;12.30;99.90;;;;;;4928791;28;20063;-80
2022/06/22 03:45:57;;;;;;;6.32;3.28;;;12.20;99.50;;;;;;4932125;29;20039;-80
2022/06/22 03:48:27;;;;;;;4.00;2.95;;;12.20;99.90;;;;;;4914265;29;20034;-80
2022/06/22 03:51:17;;;;;;;5.35;3.53;;;12.40;98.20;;;;;;4930940;29;20547;-80
2022/06/22 03:53:54;;;;;;;6.43;3.53;;;12.50;99.90;;;;;;4951133;28;20655;-80
2022/06/22 03:56:21;;;;;;;4.95;3.25;;;12.70;94.00;;;;;;4930707;29;20040;-80
2022/06/22 03:58:48;;;;;;;6.13;3.65;;;12.70;92.60;;;;;;4915503;28;20039;-79
2022/06/22 04:01:14;;;;;;;5.97;3.70;;;12.80;93.30;;;;;;4931276;29;20043;-80
2022/06/22 04:03:40;;;;;;;7.85;3.88;;;12.70;97.40;;;;;;4916421;28;20189;-80
2022/06/22 04:06:05;;;;;;;7.22;3.90;;;12.90;95.50;;;;;;4918318;29;20039;-80
2022/06/22 04:08:32;;;;;;;9.30;4.28;;;12.90;96.40;;;;;;4927930;28;20032;-80
2022/06/22 04:11:08;;;;;;;5.95;3.63;;;13.10;94.90;;;;;;4920988;29;20043;-80
2022/06/22 04:14:09;;;;;;;6.38;4.50;;;13.20;95.60;;;;;;4920644;28;20062;-80
2022/06/22 04:16:40;;;;;;;6.88;3.67;;;13.30;96.80;;;;;;4935174;28;20035;-80
2022/06/22 04:19:20;;;;;;;6.45;4.00;;;13.60;94.70;;;;;;4919132;29;20062;-80
2022/06/22 04:21:54;;;;;;;6.35;3.65;;;13.70;94.00;;;;;;4915499;28;20557;-80
2022/06/22 04:24:27;;;;;;;8.52;4.18;;;13.90;93.40;;;;;;4934106;29;20034;-80
2022/06/22 04:27:21;;;;;;;7.88;3.72;;;14.20;94.10;;;;;;4934287;29;20356;-79
2022/06/22 04:29:52;;;;;;;6.03;3.40;;;14.40;98.50;;;;;;4916918;28;20039;-80
2022/06/22 04:32:58;;;;;;;4.45;3.20;;;14.60;92.90;;;;;;4934198;29;20130;-79
2022/06/22 04:35:28;;;;;;;4.13;3.03;;;14.90;92.90;;;;;;4911816;29;20130;-79
2022/06/22 04:38:13;;;;;;;5.15;3.30;;;15.10;91.50;;;;;;4928279;29;20035;-80
2022/06/22 04:40:48;;;;;;;8.32;3.75;;;15.40;91.50;;;;;;4932597;28;20137;-80
2022/06/22 04:43:14;;;;;;;5.20;2.70;;;15.70;91.60;;;;;;4929535;29;20065;-79
2022/06/22 04:45:42;;;;;;;5.18;2.97;;;15.90;91.80;;;;;;4932709;29;20523;-80
2022/06/22 04:48:15;;;;;;;4.93;3.28;;;16.20;90.50;;;;;;4929206;29;20412;-79
2022/06/22 04:50:42;;;;;;;3.22;2.75;;;16.50;91.70;;;;;;4927793;28;20399;-80
2022/06/22 04:53:20;;;;;;;2.70;2.45;;;16.70;91.60;;;;;;4929084;29;20142;-79
2022/06/22 04:55:46;;;;;;;3.53;2.65;;;17.00;92.00;;;;;;4932676;28;20515;-79
2022/06/22 04:58:44;;;;;;;6.35;3.22;;;17.30;92.30;;;;;;4914468;29;20036;-79
2022/06/22 05:01:15;;;;;;;4.65;3.15;;;17.50;92.20;;;;;;4923189;28;20426;-79
2022/06/22 05:03:41;;;;;;;7.38;3.22;;;17.80;92.20;;;;;;4926173;29;20039;-79
2022/06/22 05:06:20;;;;;;;8.50;3.53;;;17.90;91.90;;;;;;4922020;29;20095;-79
2022/06/22 05:08:51;;;;;;;10.05;3.38;;;17.90;91.70;;;;;;4919406;28;20446;-78
2022/06/22 05:11:21;;;;;;;6.40;2.88;;;18.00;91.70;;;;;;4934208;29;20561;-78
2022/06/22 05:13:48;;;;;;;7.10;3.13;;;18.30;91.50;;;;;;4928621;28;20039;-78
2022/06/22 05:16:18;;;;;;;4.28;2.92;;;18.50;91.40;;;;;;4928930;28;20039;-78
2022/06/22 05:18:45;;;;;;;7.78;3.35;;;18.70;91.20;;;;;;4902079;28;20131;-79
2022/06/22 05:21:41;;;;;;;5.57;3.20;;;19.00;91.20;;;;;;4929253;29;20039;-79
2022/06/22 05:24:15;;;;;;;6.38;2.97;;;19.40;91.20;;;;;;4924971;29;20035;-78
2022/06/22 05:26:41;;;;;;;6.10;3.30;;;19.60;90.60;;;;;;4933892;29;20090;-78
2022/06/22 05:29:10;;;;;;;3.58;3.13;;;20.00;90.10;;;;;;4934423;29;20031;-78
2022/06/22 05:31:42;;;;;;;10.20;3.20;;;20.10;89.20;;;;;;4916610;28;20059;-79
2022/06/22 05:34:11;;;;;;;3.50;3.15;;;20.50;88.70;;;;;;4933205;29;20417;-78
2022/06/22 05:36:38;;;;;;;9.70;3.15;;;20.70;86.90;;;;;;4930383;29;20495;-78
2022/06/22 05:39:04;;;;;;;7.82;3.20;;;20.90;85.30;;;;;;4931585;29;20043;-78
2022/06/22 05:41:31;;;;;;;6.55;3.45;;;21.20;84.00;;;;;;4921230;28;20035;-78
2022/06/22 05:43:58;;;;;;;5.70;3.33;;;21.40;83.20;;;;;;4935345;29;20394;-78
2022/06/22 05:46:24;;;;;;;7.68;3.22;;;21.50;81.90;;;;;;4933068;29;20502;-78
2022/06/22 05:48:49;;;;;;;6.07;3.40;;;21.80;81.30;;;;;;4931178;28;20039;-78
2022/06/22 05:51:41;;;;;;;5.45;2.45;;;22.00;80.00;;;;;;4900218;29;20027;-77
2022/06/22 05:54:32;;;;;;;5.97;3.22;;;22.10;79.10;;;;;;4930821;29;20028;-78
2022/06/22 05:57:09;;;;;;;7.10;3.28;;;22.40;78.10;;;;;;4929746;28;20043;-78
2022/06/22 05:59:43;;;;;;;7.97;3.25;;;22.70;77.10;;;;;;4943089;28;20491;-78
2022/06/22 06:02:48;;;;;;;8.45;3.45;;;22.80;76.00;;;;;;4930301;28;20031;-78
2022/06/22 06:05:27;;;;;;;10.18;3.20;;;23.20;74.80;;;;;;4892002;29;20066;-78
2022/06/22 06:07:55;;;;;;;8.75;3.53;;;23.50;73.40;;;;;;4930245;29;20495;-78
2022/06/22 06:10:33;;;;;;;8.30;3.95;;;23.60;72.60;;;;;;4914513;29;20036;-77
2022/06/22 06:13:24;;;;;;;9.65;3.53;;;23.70;70.70;;;;;;4915002;29;20175;-77
2022/06/22 06:15:55;;;;;;;6.13;3.25;;;23.80;69.30;;;;;;4947722;29;20043;-77
2022/06/22 06:18:32;;;;;;;7.13;2.63;;;23.90;70.00;;;;;;4915492;29;20050;-77
2022/06/22 06:21:02;;;;;;;8.50;3.45;;;23.90;70.20;;;;;;4915020;29;20039;-77
2022/06/22 06:23:38;;;;;;;8.73;3.78;;;24.10;69.30;;;;;;4910999;29;20027;-77
2022/06/22 06:29:04;;;;;;;6.10;2.88;;;24.50;67.20;;;;;;4933087;28;20072;-78
2022/06/22 06:31:37;;;;;;;7.95;3.83;;;24.80;66.60;;;;;;4927144;28;20520;-77
2022/06/22 06:34:06;;;;;;;11.60;3.67;;;24.90;65.40;;;;;;4932765;28;20058;-77
2022/06/22 06:36:35;;;;;;;9.18;3.50;;;25.10;64.80;;;;;;4929889;28;20035;-78
2022/06/22 06:39:08;;;;;;;6.32;3.38;;;25.30;63.50;;;;;;4914480;29;20533;-78
2022/06/22 06:41:46;;;;;;;6.22;3.15;;;25.50;62.10;;;;;;4924630;29;20035;-78
2022/06/22 06:44:18;;;;;;;6.25;2.42;;;25.60;62.30;;;;;;4913818;29;20044;-79
2022/06/22 06:46:54;;;;;;;10.23;3.78;;;25.80;62.20;;;;;;4900011;29;20031;-78
2022/06/22 06:49:31;;;;;;;7.80;3.13;;;25.80;61.60;;;;;;4914119;29;20077;-78
2022/06/22 06:52:17;;;;;;;6.53;3.55;;;26.00;60.40;;;;;;4908090;29;20027;-77
2022/06/22 06:54:46;;;;;;;5.10;2.90;;;26.00;58.80;;;;;;4911374;28;20507;-77
2022/06/22 06:57:14;;;;;;;3.35;1.90;;;26.00;58.60;;;;;;4929199;29;20559;-78
2022/06/22 06:59:42;;;;;;;6.25;2.80;;;26.10;58.30;;;;;;4925240;29;20042;-78
2022/06/22 07:02:27;;;;;;;10.30;3.10;;;26.20;59.20;;;;;;4927592;29;20652;-77
2022/06/22 07:04:52;;;;;;;4.53;2.70;;;26.30;58.80;;;;;;4914664;29;20054;-79
2022/06/22 07:07:28;;;;;;;12.80;3.30;;;26.50;58.70;;;;;;4915059;29;20047;-79
2022/06/22 07:09:55;;;;;;;5.10;2.90;;;26.70;58.00;;;;;;4920217;28;20127;-79
2022/06/22 07:12:42;;;;;;;8.27;4.47;;;26.80;58.50;;;;;;4913236;29;20122;-79
2022/06/22 07:15:18;;;;;;;6.57;3.58;;;27.20;58.00;;;;;;4941899;29;20439;-80
2022/06/22 07:17:44;;;;;;;;;;;27.30;56.70;;;;;;4928434;28;20039;-80
2022/06/22 07:20:14;;;;;;;;;;;27.60;55.70;;;;;;4931109;29;20294;-81
2022/06/22 07:22:51;;;;;;;10.32;4.57;;;27.70;56.40;;;;;;4912302;28;19942;-80
2022/06/22 07:25:21;;;;;;;9.32;3.70;;;27.90;55.70;;;;;;4895320;29;20484;-81
2022/06/22 07:28:03;;;;;;;8.05;3.38;;;28.10;55.70;;;;;;4935049;29;20478;-81
2022/06/22 07:30:43;;;;;;;6.78;3.95;;;28.20;55.50;;;;;;4937806;29;20035;-81
2022/06/22 07:33:25;;;;;;;3.97;2.38;;;28.60;55.50;;;;;;4934930;29;20415;-80
2022/06/22 07:36:10;;;;;;;5.90;3.42;;;28.70;55.10;;;;;;4927379;29;20125;-81
2022/06/22 07:39:00;;;;;;;4.55;3.47;;;29.00;54.30;;;;;;4922069;29;20035;-81
2022/06/22 07:41:29;;;;;;;11.15;3.70;;;29.10;53.90;;;;;;4947918;29;20090;-79
2022/06/22 07:44:04;;;;;;;12.27;3.85;;;29.40;52.70;;;;;;4919704;28;20039;-80
2022/06/22 07:46:51;;;;;;;17.95;4.13;;;29.40;52.30;;;;;;4917060;29;20586;-79
2022/06/22 07:49:18;;;;;;;6.55;3.30;;;29.50;53.20;;;;;;4936803;28;20576;-79
2022/06/22 07:51:49;;;;;;;8.95;3.28;;;29.50;52.10;;;;;;4923530;28;20361;-79
2022/06/22 07:54:32;;;;;;;4.78;2.70;;;29.70;51.40;;;;;;4919808;29;20051;-80
2022/06/22 07:57:13;;;;;;;5.45;2.08;;;29.80;52.20;;;;;;4921873;29;20483;-79
2022/06/22 07:59:55;;;;;;;8.68;3.00;;;30.00;51.20;;;;;;4938767;28;20122;-79
2022/06/22 08:02:23;;;;;;;5.57;3.00;;;30.10;51.20;;;;;;4944848;28;20043;-78
2022/06/22 08:04:54;;;;;;;6.30;2.25;;;30.00;51.40;;;;;;4923603;29;20123;-79
2022/06/22 08:07:24;;;;;;;8.35;3.03;;;30.20;51.10;;;;;;4934090;29;20039;-79
2022/06/22 08:09:54;;;;;;;7.70;3.13;;;30.50;50.80;;;;;;4904153;28;20646;-80
2022/06/22 08:12:32;;;;;;;6.78;2.90;;;30.70;49.80;;;;;;4912090;29;20027;-79
2022/06/22 08:14:57;;;;;;;6.95;2.25;;;30.90;50.10;;;;;;4899554;29;20440;-79
2022/06/22 08:17:41;;;;;;;6.15;2.50;;;30.90;49.90;;;;;;4907977;29;20043;-79
2022/06/22 08:20:13;;;;;;;4.80;2.50;;;31.00;49.70;;;;;;4932556;29;20055;-80
2022/06/22 08:22:40;;;;;;;6.55;2.78;;;31.10;48.50;;;;;;4935733;28;20041;-80
2022/06/22 08:25:05;;;;;;;4.93;2.22;;;31.20;48.40;;;;;;4924566;29;20039;-81
2022/06/22 08:27:31;;;;;;;10.35;3.03;;;31.30;48.70;;;;;;4919733;28;20033;-80
2022/06/22 08:29:57;;;;;;;11.60;2.85;;;31.40;49.00;;;;;;4936671;28;20062;-82
2022/06/22 08:32:36;;;;;;;11.25;3.78;;;31.70;48.10;;;;;;4921239;28;20065;-79
2022/06/22 08:35:09;;;;;;;11.95;2.90;;;32.00;46.60;;;;;;4918839;29;20120;-80
2022/06/22 08:37:41;;;;;;;7.68;2.63;;;31.90;47.20;;;;;;4933145;29;20042;-80
2022/06/22 08:40:16;;;;;;;7.60;2.10;;;32.10;46.80;;;;;;4927899;29;20027;-81
2022/06/22 08:42:44;;;;;;;5.63;2.50;;;32.10;47.00;;;;;;4943797;28;20059;-80
2022/06/22 08:45:32;;;;;;;10.73;2.08;;;32.10;46.30;;;;;;4916055;28;20038;-80
2022/06/22 08:48:00;;;;;;;2.72;1.70;;;32.30;46.90;;;;;;4949112;28;20035;-82
2022/06/22 08:50:35;;;;;;;3.75;1.50;;;32.30;46.80;;;;;;4927213;28;20055;-81
2022/06/22 08:53:21;;;;;;;6.63;1.90;;;32.40;47.10;;;;;;4933462;29;20055;-81
2022/06/22 08:56:11;;;;;;;5.18;1.80;;;32.60;45.90;;;;;;4947667;28;20059;-81
2022/06/22 08:58:48;;;;;;;5.78;1.13;;;32.80;46.20;;;;;;4945924;28;20047;-81
2022/06/22 09:01:23;;;;;;;4.35;1.55;;;33.00;46.00;;;;;;4933799;29;20035;-81
2022/06/22 09:04:13;;;;;;;5.53;1.80;;;33.10;45.80;;;;;;4930999;29;20141;-82
2022/06/22 09:07:14;;;;;;;2.83;1.25;;;33.30;45.00;;;;;;4951000;28;20408;-81
2022/06/22 09:09:57;;;;;;;3.30;1.88;;;33.40;45.30;;;;;;4904708;29;20035;-82
2022/06/22 09:12:41;;;;;;;6.93;2.17;;;33.70;44.10;;;;;;4930166;29;20119;-81
2022/06/22 09:15:19;;;;;;;6.25;2.03;;;33.90;41.90;;;;;;4917096;29;20372;-82
2022/06/22 09:18:01;;;;;;;5.40;1.80;;;33.90;41.50;;;;;;4946965;29;20020;-82
2022/06/22 09:20:49;;;;;;;7.25;1.90;;;33.90;41.40;;;;;;4933902;29;20031;-82
2022/06/22 09:23:30;;;;;;;4.35;2.17;;;33.90;41.90;;;;;;4915780;29;20031;-81
2022/06/22 09:26:05;;;;;;;5.63;1.80;;;34.10;40.80;;;;;;4916194;29;20033;-82
2022/06/22 09:28:58;;;;;;;5.32;1.75;;;34.10;41.40;;;;;;4947256;28;20124;-82
2022/06/22 09:31:42;;;;;;;4.13;1.50;;;34.10;41.60;;;;;;4901256;29;20031;-81
2022/06/22 09:34:07;;;;;;;3.75;1.50;;;34.10;42.20;;;;;;4947099;29;20060;-82
2022/06/22 09:36:56;;;;;;;5.75;2.05;;;34.10;41.90;;;;;;4933999;29;20031;-82
2022/06/22 09:39:42;;;;;;;4.40;1.50;;;34.20;42.20;;;;;;4931554;29;20062;-82
2022/06/22 09:42:42;;;;;;;3.50;1.30;;;34.40;41.20;;;;;;4927540;29;20035;-81
2022/06/22 09:45:26;;;;;;;2.45;1.20;;;34.50;41.00;;;;;;4943382;29;20055;-82
2022/06/22 09:47:57;;;;;;;1.63;1.20;;;34.40;41.60;;;;;;4931600;29;20027;-82
2022/06/22 09:51:01;;;;;;;4.55;1.77;;;34.40;41.80;;;;;;4931224;29;20144;-80
2022/06/22 09:53:50;;;;;;;5.35;1.73;;;34.70;40.00;;;;;;4870793;29;20031;-81
2022/06/22 09:56:38;;;;;;;4.15;1.70;;;34.80;39.60;;;;;;4934514;28;20031;-82
2022/06/22 09:59:25;;;;;;;3.40;1.38;;;34.90;39.00;;;;;;4923888;29;20129;-80
2022/06/22 10:02:23;;;;;;;5.07;1.40;;;34.90;39.80;;;;;;4947285;28;20626;-81
2022/06/22 10:05:27;;;;;;;3.80;1.52;;;34.80;40.20;;;;;;4944706;28;20031;-81
2022/06/22 10:08:28;;;;;;;4.57;1.88;;;34.90;39.60;;;;;;4945093;29;20097;-82
2022/06/22 10:10:56;;;;;;;7.00;1.98;;;34.80;39.90;;;;;;4899363;29;20035;-81
2022/06/22 10:13:49;;;;;;;4.95;1.45;;;34.90;39.50;;;;;;4930343;29;20043;-81
2022/06/22 10:16:48;;;;;;;6.95;1.90;;;35.10;40.10;;;;;;4936664;28;20051;-81
2022/06/22 10:20:06;;;;;;;5.10;1.50;;;35.20;38.50;;;;;;4945838;29;20475;-82
2022/06/22 10:22:56;;;;;;;5.55;1.90;;;35.20;38.90;;;;;;4835990;29;20040;-81
2022/06/22 10:25:28;;;;;;;3.22;1.58;;;35.60;37.40;;;;;;4810565;29;20788;-83
2022/06/22 10:27:56;;;;;;;2.45;1.33;;;35.50;38.60;;;;;;4882443;29;20027;-83
2022/06/22 10:30:49;;;;;;;7.35;2.03;;;35.40;39.80;;;;;;4946674;28;20439;-82
2022/06/22 10:33:28;;;;;;;3.45;1.77;;;35.50;39.30;;;;;;4948388;28;20027;-81
2022/06/22 10:36:17;;;;;;;1.73;1.20;;;35.80;38.30;;;;;;4904693;29;20027;-81
2022/06/22 10:38:58;;;;;;;6.75;1.48;;;35.70;38.60;;;;;;4935615;29;20542;-81
2022/06/22 10:47:34;;;;;;;3.45;2.00;;;35.90;37.10;;;;;;4929918;29;20150;-82
2022/06/22 10:50:17;;;;;;;4.90;2.05;;;36.00;36.60;;;;;;4929909;29;20047;-81
2022/06/22 10:52:52;;;;;;;3.35;1.52;;;36.10;37.00;;;;;;4928460;29;20031;-82
2022/06/22 10:55:51;;;;;;;5.60;1.52;;;36.00;38.10;;;;;;4933199;28;20061;-82
2022/06/22 10:58:40;;;;;;;5.85;1.60;;;36.20;36.90;;;;;;4928901;29;20031;-82
2022/06/22 11:01:53;;;;;;;4.38;1.55;;;36.30;36.50;;;;;;4928516;29;20557;-82
2022/06/22 11:05:06;;;;;;;5.30;1.83;;;36.30;36.90;;;;;;4922593;29;20046;-82
2022/06/22 11:07:38;;;;;;;7.43;2.22;;;36.40;36.40;;;;;;4920154;29;20063;-82
2022/06/22 11:10:12;;;;;;;9.60;2.40;;;36.50;36.60;;;;;;4943674;28;20380;-80
2022/06/22 11:13:09;;;;;;;6.38;1.92;;;36.40;36.10;;;;;;4944819;28;20070;-82
2022/06/22 11:15:52;;;;;;;3.47;1.88;;;36.60;35.70;;;;;;4929324;29;20429;-81
2022/06/22 11:18:31;;;;;;;3.92;1.45;;;36.50;36.70;;;;;;4929534;29;20035;-82
2022/06/22 11:21:20;;;;;;;4.57;2.10;;;36.70;36.50;;;;;;4927888;28;20058;-81
2022/06/22 11:23:57;;;;;;;7.50;2.17;;;36.80;35.30;;;;;;4914968;29;20039;-82
2022/06/22 11:32:52;;;;;;;4.63;1.63;;;37.00;35.10;;;;;;4945394;29;20046;-82
2022/06/22 11:35:36;;;;;;;4.93;1.48;;;37.00;36.20;;;;;;4932383;29;20307;-82
2022/06/22 11:38:20;;;;;;;5.15;1.90;;;37.20;35.70;;;;;;4915186;28;20051;-81
2022/06/22 11:41:00;;;;;;;4.15;1.27;;;37.60;34.60;;;;;;4939796;28;20058;-82
2022/06/22 11:43:44;;;;;;;6.80;1.80;;;37.60;35.00;;;;;;4947321;28;20482;-83
2022/06/22 11:46:27;;;;;;;3.10;1.73;;;37.70;34.40;;;;;;4933371;28;20122;-83
2022/06/22 11:49:11;;;;;;;3.67;2.08;;;37.70;35.00;;;;;;4901917;29;20483;-83
2022/06/22 11:51:58;;;;;;;4.00;1.83;;;37.70;34.30;;;;;;4946083;28;20151;-82
2022/06/22 11:54:42;;;;;;;4.80;1.60;;;37.80;33.10;;;;;;4931174;29;20042;-81
2022/06/22 11:57:13;;;;;;;6.30;1.60;;;37.70;33.80;;;;;;4945687;29;20391;-82
2022/06/22 11:59:41;;;;;;;5.43;1.52;;;37.70;34.20;;;;;;4925161;29;20051;-83
2022/06/22 12:02:35;;;;;;;5.72;1.58;;;37.70;33.40;;;;;;4944493;28;20432;-83
2022/06/22 12:05:10;;;;;;;3.25;1.33;;;37.70;34.20;;;;;;4945569;29;20039;-81
2022/06/22 12:07:53;;;;;;;4.55;1.65;;;37.80;33.50;;;;;;4945423;29;20087;-81
2022/06/22 12:10:46;;;;;;;3.75;1.30;;;37.90;33.50;;;;;;4926724;29;20436;-82
2022/06/22 12:13:27;;;;;;;3.78;1.58;;;37.80;32.90;;;;;;4950678;28;20042;-81
2022/06/22 12:16:16;;;;;;;3.53;1.23;;;37.80;33.10;;;;;;4950359;29;20384;-81
2022/06/22 12:19:00;;;;;;;3.00;1.38;;;37.80;33.10;;;;;;4948706;29;20035;-83
2022/06/22 12:21:51;;;;;;;2.43;1.23;;;37.90;32.60;;;;;;4930812;29;20042;-83
2022/06/22 12:24:38;;;;;;;2.47;1.70;;;38.00;33.30;;;;;;4916108;29;20059;-82
2022/06/22 12:27:51;;;;;;;2.78;1.00;;;38.00;33.00;;;;;;4927720;29;20059;-83
2022/06/22 12:30:34;;;;;;;2.95;1.40;;;38.20;33.00;;;;;;4919065;29;20567;-81
2022/06/22 12:33:17;;;;;;;2.38;1.33;;;38.20;31.80;;;;;;4928217;29;20039;-83
2022/06/22 12:35:42;;;;;;;2.05;1.20;;;38.30;31.80;;;;;;4917844;29;20031;-80
2022/06/22 12:38:21;;;;;;;8.05;1.80;;;38.30;32.70;;;;;;4933267;29;20090;-82
2022/06/22 12:40:56;;;;;;;39.45;3.92;;;38.30;32.50;;;;;;4929876;29;20039;-81
2022/06/22 12:43:27;;;;;;;5.40;1.95;;;38.50;33.30;;;;;;4930706;29;20364;-82
2022/06/22 12:45:54;;;;;;;33.30;4.05;;;38.50;32.40;;;;;;4948949;29;20046;-82
2022/06/22 12:48:30;;;;;;;3.83;1.42;;;38.60;31.10;;;;;;4922171;29;20066;-83
2022/06/22 12:50:56;;;;;;;4.90;1.77;;;38.90;30.50;;;;;;4932925;28;20038;-82
2022/06/22 12:53:37;;;;;;;4.80;1.25;;;38.80;30.50;;;;;;4931950;29;20543;-82
2022/06/22 12:56:15;;;;;;;2.13;0.98;;;38.90;30.30;;;;;;4901652;29;20043;-82
2022/06/22 12:58:59;;;;;;;2.30;1.02;;;39.00;30.40;;;;;;4929702;29;20039;-82
2022/06/22 13:01:25;;;;;;;4.03;1.23;;;39.00;31.20;;;;;;4948363;28;20043;-83
2022/06/22 13:03:55;;;;;;;3.78;1.40;;;39.00;30.10;;;;;;4926691;29;20039;-82
2022/06/22 13:06:23;;;;;;;3.78;1.40;;;39.10;30.80;;;;;;4926217;29;20039;-82
2022/06/22 13:08:48;;;;;;;2.78;1.77;;;39.00;30.90;;;;;;4929286;29;20036;-82
2022/06/22 13:11:19;;;;;;;6.43;1.70;;;39.00;31.00;;;;;;4921885;29;20040;-81
2022/06/22 13:13:56;;;;;;;4.90;1.45;;;39.20;31.20;;;;;;4930648;29;20027;-82
2022/06/22 13:16:32;;;;;;;4.43;1.40;;;39.40;30.10;;;;;;4946254;28;20037;-82
2022/06/22 13:19:25;;;;;;;4.60;1.10;;;39.40;30.90;;;;;;4927082;29;20495;-83
2022/06/22 13:21:56;;;;;;;2.72;1.20;;;39.40;30.60;;;;;;4947579;28;20176;-82
2022/06/22 13:24:32;;;;;;;3.63;1.27;;;39.40;31.10;;;;;;4927548;29;20031;-83
2022/06/22 13:27:17;;;;;;;2.83;1.30;;;39.50;29.90;;;;;;4931640;29;20074;-82
2022/06/22 13:29:49;;;;;;;3.00;1.27;;;39.60;30.60;;;;;;4942438;29;20039;-82
2022/06/22 13:32:15;;;;;;;3.78;1.52;;;39.60;30.50;;;;;;4940518;29;20032;-82
2022/06/22 13:34:46;;;;;;;5.07;1.33;;;39.70;29.90;;;;;;4912517;29;20392;-81
2022/06/22 13:37:17;;;;;;;5.72;1.70;;;39.70;30.00;;;;;;4929639;29;20378;-83
2022/06/22 13:40:26;;;;;;;3.13;1.45;;;39.80;30.10;;;;;;4930776;29;20174;-83
2022/06/22 13:43:16;;;;;;;2.40;1.20;;;39.90;29.80;;;;;;4921825;29;20483;-83
2022/06/22 13:46:00;;;;;;;4.05;1.30;;;39.90;30.00;;;;;;4947649;29;20431;-83
2022/06/22 13:48:33;;;;;;;3.90;1.73;;;39.90;30.10;;;;;;4947547;29;20062;-82
2022/06/22 13:51:18;;;;;;;3.92;1.40;;;39.80;30.10;;;;;;4929359;29;20857;-83
2022/06/22 13:54:13;;;;;;;2.03;1.63;;;39.80;30.10;;;;;;4945099;28;20042;-83
2022/06/22 13:56:44;;;;;;;2.58;1.15;;;39.80;29.30;;;;;;4943793;28;20063;-83
2022/06/22 13:59:26;;;;;;;2.53;1.20;;;39.80;30.10;;;;;;4929734;29;20046;-82
2022/06/22 14:02:20;;;;;;;4.10;1.27;;;39.80;30.00;;;;;;4913378;29;20119;-82
2022/06/22 14:04:59;;;;;;;1.92;1.23;;;39.80;30.60;;;;;;4932005;29;20495;-82